Time;durP1;ratioP1;P1;durP2;ratioP2;P2;SDS_P1;SDS_P2;PMS_P1;PMS_P2;Temp;Humidity;BMP_temperature;BMP_pressure;BME280_temperature;BME280_humidity;BME280_pressure;Samples;Min_cycle;Max_cycle;Signal;HPM_P1;HPM_P2
2023/01/07 00:01:36;;;;;;;;;26.00;18.00;;;;;;;;116383;1198;25319;-68
2023/01/07 00:04:06;;;;;;;;;20.00;17.00;;;;;;;;116380;1206;25566;-69
2023/01/07 00:06:37;;;;;;;;;19.50;16.00;;;;;;;;116417;1198;24968;-69
2023/01/07 00:09:05;;;;;;;;;;;;;;;;;;116415;1203;24817;-69
2023/01/07 00:11:36;;;;;;;;;22.00;20.00;;;;;;;;116513;1205;24660;-69
2023/01/07 00:14:06;;;;;;;;;19.00;17.00;;;;;;;;116357;1209;25488;-68
2023/01/07 00:16:35;;;;;;;;;16.00;16.00;;;;;;;;116477;1203;25587;-68
2023/01/07 00:19:07;;;;;;;;;17.00;16.00;;;;;;;;116377;1203;25008;-68
2023/01/07 00:21:35;;;;;;;;;17.50;16.00;;;;;;;;116339;1209;24879;-68
2023/01/07 00:24:05;;;;;;;;;17.00;16.00;;;;;;;;116411;1203;25941;-69
2023/01/07 00:26:35;;;;;;;;;19.00;18.00;;;;;;;;116385;1206;25492;-68
2023/01/07 00:29:04;;;;;;;;;19.00;14.00;;;;;;;;116399;1203;25287;-68
2023/01/07 00:31:35;;;;;;;;;15.00;15.00;;;;;;;;116375;1199;25219;-68
2023/01/07 00:36:45;;;;;;;;;22.00;17.00;;;;;;;;116374;1202;24732;-68
2023/01/07 00:39:17;;;;;;;;;15.00;15.00;;;;;;;;116417;1199;25262;-69
2023/01/07 00:44:33;;;;;;;;;18.00;16.00;;;;;;;;116449;1200;25594;-68
2023/01/07 00:47:01;;;;;;;;;15.67;15.67;;;;;;;;116418;1199;24880;-68
2023/01/07 00:49:30;;;;;;;;;16.50;15.00;;;;;;;;116502;1205;25337;-68
2023/01/07 00:51:58;;;;;;;;;18.00;18.00;;;;;;;;116372;1195;25165;-68
2023/01/07 00:54:26;;;;;;;;;15.00;14.00;;;;;;;;116496;1200;25589;-69
2023/01/07 00:56:54;;;;;;;;;20.00;17.00;;;;;;;;116501;1209;24687;-68
2023/01/07 00:59:23;;;;;;;;;17.00;15.00;;;;;;;;116476;1208;25242;-68
2023/01/07 01:01:51;;;;;;;;;17.00;16.00;;;;;;;;116406;1204;25610;-68
2023/01/07 01:04:19;;;;;;;;;16.00;15.50;;;;;;;;116483;1210;25654;-68
2023/01/07 01:06:47;;;;;;;;;15.50;14.00;;;;;;;;116507;1203;25111;-68
2023/01/07 01:09:16;;;;;;;;;15.00;13.00;;;;;;;;116394;1203;25356;-68
2023/01/07 01:11:44;;;;;;;;;15.50;14.00;;;;;;;;116346;1211;25336;-69
2023/01/07 01:14:12;;;;;;;;;16.50;16.50;;;;;;;;116396;1199;24976;-68
2023/01/07 01:16:40;;;;;;;;;15.00;14.00;;;;;;;;116370;1209;24765;-68
2023/01/07 01:19:09;;;;;;;;;11.00;11.00;;;;;;;;116383;1203;24936;-68
2023/01/07 01:21:39;;;;;;;;;16.00;13.50;;;;;;;;116364;1206;25430;-68
2023/01/07 01:24:08;;;;;;;;;19.00;16.00;;;;;;;;116362;1212;25025;-68
2023/01/07 01:26:36;;;;;;;;;15.00;13.50;;;;;;;;116389;1203;25634;-68
2023/01/07 01:29:05;;;;;;;;;9.67;8.00;;;;;;;;116365;1203;25367;-68
2023/01/07 01:31:33;;;;;;;;;;;;;;;;;;116383;1203;25933;-69
2023/01/07 01:34:01;;;;;;;;;15.00;14.00;;;;;;;;116365;1203;25670;-68
2023/01/07 01:36:29;;;;;;;;;13.00;13.00;;;;;;;;116386;1203;24930;-68
2023/01/07 01:38:58;;;;;;;;;16.00;13.00;;;;;;;;116383;1211;25433;-68
2023/01/07 01:41:26;;;;;;;;;12.00;11.00;;;;;;;;116348;1203;25390;-68
2023/01/07 01:43:54;;;;;;;;;15.50;12.50;;;;;;;;116375;1195;24900;-68
2023/01/07 01:46:31;;;;;;;;;15.00;14.00;;;;;;;;116348;1206;25392;-68
2023/01/07 01:49:29;;;;;;;;;15.33;13.33;;;;;;;;116343;1211;24906;-69
2023/01/07 01:52:10;;;;;;;;;17.50;13.50;;;;;;;;116388;1210;25323;-68
2023/01/07 01:54:40;;;;;;;;;15.00;13.00;;;;;;;;116373;1205;25105;-68
2023/01/07 01:57:09;;;;;;;;;15.00;14.00;;;;;;;;116379;1203;25284;-68
2023/01/07 01:59:41;;;;;;;;;15.00;12.00;;;;;;;;116404;1206;24970;-69
2023/01/07 02:02:09;;;;;;;;;13.50;12.00;;;;;;;;116401;1203;24944;-69
2023/01/07 02:04:38;;;;;;;;;13.00;10.00;;;;;;;;116408;1206;25151;-69
2023/01/07 02:07:11;;;;;;;;;14.00;13.00;;;;;;;;116490;1202;24857;-69
2023/01/07 02:09:39;;;;;;;;;8.67;8.67;;;;;;;;116458;1198;25133;-69
2023/01/07 02:12:14;;;;;;;;;12.00;12.00;;;;;;;;116412;1203;25255;-68
2023/01/07 02:15:01;;;;;;;;;10.00;10.00;;;;;;;;116439;1198;25181;-68
2023/01/07 02:17:42;;;;;;;;;12.67;10.33;;;;;;;;116473;1202;26214;-69
2023/01/07 02:20:28;;;;;;;;;9.67;9.00;;;;;;;;116434;1195;25233;-68
2023/01/07 02:23:09;;;;;;;;;13.00;13.00;;;;;;;;116433;1204;25243;-68
2023/01/07 02:25:46;;;;;;;;;11.00;11.00;;;;;;;;116485;1199;25628;-69
2023/01/07 02:28:36;;;;;;;;;13.50;13.50;;;;;;;;116479;1203;25037;-69
2023/01/07 02:31:27;;;;;;;;;12.50;11.50;;;;;;;;116500;1202;24922;-69
2023/01/07 02:34:12;;;;;;;;;14.00;12.00;;;;;;;;116284;1211;25126;-69
2023/01/07 02:36:46;;;;;;;;;11.50;11.50;;;;;;;;116355;1211;25730;-69
2023/01/07 02:39:36;;;;;;;;;14.00;13.00;;;;;;;;116407;1201;26779;-69
2023/01/07 02:42:21;;;;;;;;;15.00;13.00;;;;;;;;116507;1208;25213;-69
2023/01/07 02:45:01;;;;;;;;;14.00;11.00;;;;;;;;116523;1199;25189;-68
2023/01/07 02:47:37;;;;;;;;;10.00;10.00;;;;;;;;116422;1200;25007;-69
2023/01/07 02:50:06;;;;;;;;;11.00;9.00;;;;;;;;116502;1202;24996;-68
2023/01/07 02:52:35;;;;;;;;;11.00;11.00;;;;;;;;116408;1209;25691;-68
2023/01/07 02:55:30;;;;;;;;;10.50;10.00;;;;;;;;116406;1209;25201;-68
2023/01/07 02:58:35;;;;;;;;;13.00;13.00;;;;;;;;116355;1206;25024;-68
2023/01/07 03:01:06;;;;;;;;;14.00;11.00;;;;;;;;116372;1200;25196;-68
2023/01/07 03:03:42;;;;;;;;;13.67;11.67;;;;;;;;116401;1203;25257;-68
2023/01/07 03:06:33;;;;;;;;;13.00;11.00;;;;;;;;116338;1211;25270;-68
2023/01/07 03:09:18;;;;;;;;;10.00;10.00;;;;;;;;116399;1196;25567;-68
2023/01/07 03:12:28;;;;;;;;;18.00;12.00;;;;;;;;116384;1210;25418;-68
2023/01/07 03:15:04;;;;;;;;;13.50;12.00;;;;;;;;116180;1199;25344;-68
2023/01/07 03:17:50;;;;;;;;;11.00;10.00;;;;;;;;116371;1195;24818;-68
2023/01/07 03:20:21;;;;;;;;;11.00;10.00;;;;;;;;116341;1206;25104;-68
2023/01/07 03:22:51;;;;;;;;;14.00;12.00;;;;;;;;116349;1209;24824;-68
2023/01/07 03:25:21;;;;;;;;;13.00;10.50;;;;;;;;116335;1208;25290;-68
2023/01/07 03:27:50;;;;;;;;;12.00;11.00;;;;;;;;116387;1209;25792;-68
2023/01/07 03:30:19;;;;;;;;;15.00;10.50;;;;;;;;116381;1212;25086;-68
2023/01/07 03:33:19;;;;;;;;;12.00;9.50;;;;;;;;116399;1199;25216;-68
2023/01/07 03:35:49;;;;;;;;;10.00;10.00;;;;;;;;116164;1205;25410;-68
2023/01/07 03:38:20;;;;;;;;;14.50;11.50;;;;;;;;116375;1205;25318;-68
2023/01/07 03:40:49;;;;;;;;;9.00;9.00;;;;;;;;116409;1199;25419;-68
2023/01/07 03:43:19;;;;;;;;;10.00;9.50;;;;;;;;116320;1202;24798;-68
2023/01/07 03:45:48;;;;;;;;;11.50;10.50;;;;;;;;116361;1198;25632;-68
2023/01/07 03:48:17;;;;;;;;;10.50;10.00;;;;;;;;116493;1206;25725;-68
2023/01/07 03:50:45;;;;;;;;;11.50;11.00;;;;;;;;116357;1204;25735;-68
2023/01/07 03:53:13;;;;;;;;;14.00;13.00;;;;;;;;116392;1200;25338;-68
2023/01/07 03:55:42;;;;;;;;;7.50;6.50;;;;;;;;116388;1198;25725;-68
2023/01/07 03:58:10;;;;;;;;;14.50;11.50;;;;;;;;116389;1207;25595;-67
2023/01/07 04:00:38;;;;;;;;;10.00;10.00;;;;;;;;116419;1204;25504;-67
2023/01/07 04:03:06;;;;;;;;;15.00;14.00;;;;;;;;116411;1203;25175;-68
2023/01/07 04:05:35;;;;;;;;;13.00;11.00;;;;;;;;116530;1202;25687;-68
2023/01/07 04:08:03;;;;;;;;;12.00;11.50;;;;;;;;116515;1206;25327;-68
2023/01/07 04:10:31;;;;;;;;;12.00;11.50;;;;;;;;116502;1206;25675;-68
2023/01/07 04:13:00;;;;;;;;;12.50;12.50;;;;;;;;116494;1199;25364;-68
2023/01/07 04:15:28;;;;;;;;;12.00;10.50;;;;;;;;116481;1202;25093;-68
2023/01/07 04:17:56;;;;;;;;;11.00;11.00;;;;;;;;116493;1200;25685;-68
2023/01/07 04:20:25;;;;;;;;;8.00;6.33;;;;;;;;116492;1202;25919;-68
2023/01/07 04:22:53;;;;;;;;;13.00;10.00;;;;;;;;116411;1207;25239;-68
2023/01/07 04:25:21;;;;;;;;;11.00;11.00;;;;;;;;116389;1203;24962;-68
2023/01/07 04:27:49;;;;;;;;;13.00;12.00;;;;;;;;116471;1209;24681;-68
2023/01/07 04:30:18;;;;;;;;;11.00;9.00;;;;;;;;116385;1211;25127;-68
2023/01/07 04:32:46;;;;;;;;;10.50;10.50;;;;;;;;116370;1207;25668;-68
2023/01/07 04:35:15;;;;;;;;;12.00;11.00;;;;;;;;116373;1211;25242;-68
2023/01/07 04:37:43;;;;;;;;;11.00;10.00;;;;;;;;116413;1200;25371;-68
2023/01/07 04:40:11;;;;;;;;;11.50;11.00;;;;;;;;116348;1208;25613;-68
2023/01/07 04:42:40;;;;;;;;;8.50;8.50;;;;;;;;116361;1211;25597;-68
2023/01/07 04:45:08;;;;;;;;;11.50;11.50;;;;;;;;116380;1211;25148;-68
2023/01/07 04:47:37;;;;;;;;;9.00;8.50;;;;;;;;116399;1204;25512;-69
2023/01/07 04:50:05;;;;;;;;;15.00;11.00;;;;;;;;116387;1200;25024;-66
2023/01/07 04:52:34;;;;;;;;;11.00;9.00;;;;;;;;116477;1209;25376;-67
2023/01/07 04:55:02;;;;;;;;;9.00;9.00;;;;;;;;116424;1203;25329;-67
2023/01/07 04:57:30;;;;;;;;;;;;;;;;;;116416;1206;24987;-67
2023/01/07 04:59:58;;;;;;;;;8.00;8.00;;;;;;;;116497;1211;25525;-67
2023/01/07 05:02:27;;;;;;;;;9.00;9.00;;;;;;;;116479;1200;24911;-67
2023/01/07 05:04:55;;;;;;;;;8.00;8.00;;;;;;;;116493;1203;25456;-66
2023/01/07 05:07:23;;;;;;;;;10.00;10.00;;;;;;;;116398;1206;25481;-68
2023/01/07 05:09:51;;;;;;;;;9.00;9.00;;;;;;;;116507;1203;24843;-68
2023/01/07 05:12:20;;;;;;;;;12.00;9.00;;;;;;;;116491;1210;25380;-68
2023/01/07 05:14:48;;;;;;;;;10.00;10.00;;;;;;;;116375;1202;24821;-68
2023/01/07 05:17:16;;;;;;;;;10.50;9.50;;;;;;;;116424;1200;24800;-67
2023/01/07 05:19:44;;;;;;;;;10.00;9.00;;;;;;;;116480;1203;24828;-68
2023/01/07 05:22:13;;;;;;;;;8.00;7.00;;;;;;;;116512;1200;25371;-68
2023/01/07 05:24:41;;;;;;;;;9.00;8.00;;;;;;;;116529;1202;24815;-67
2023/01/07 05:27:09;;;;;;;;;7.00;7.00;;;;;;;;116391;1203;24819;-72
2023/01/07 05:29:37;;;;;;;;;11.00;9.00;;;;;;;;116394;1199;25637;-71
2023/01/07 05:32:06;;;;;;;;;11.00;10.00;;;;;;;;116577;1196;25353;-71
2023/01/07 05:34:34;;;;;;;;;9.50;9.50;;;;;;;;116385;1203;25574;-72
2023/01/07 05:37:02;;;;;;;;;13.50;9.00;;;;;;;;116356;1208;25145;-69
2023/01/07 05:39:30;;;;;;;;;6.50;6.00;;;;;;;;116371;1211;24738;-70
2023/01/07 05:41:59;;;;;;;;;12.00;12.00;;;;;;;;116393;1203;25289;-74
2023/01/07 05:44:27;;;;;;;;;13.00;8.00;;;;;;;;116350;1207;25686;-72
2023/01/07 05:46:55;;;;;;;;;12.00;10.00;;;;;;;;116379;1205;25363;-75
2023/01/07 05:49:24;;;;;;;;;9.00;9.00;;;;;;;;116339;1205;24876;-75
2023/01/07 05:51:52;;;;;;;;;10.00;9.00;;;;;;;;116353;1204;25335;-70
2023/01/07 05:54:20;;;;;;;;;11.50;10.00;;;;;;;;116359;1211;24837;-71
2023/01/07 05:56:48;;;;;;;;;9.00;9.00;;;;;;;;116356;1200;25537;-71
2023/01/07 05:59:17;;;;;;;;;10.00;8.00;;;;;;;;116541;1197;26088;-70
2023/01/07 06:01:45;;;;;;;;;9.50;8.50;;;;;;;;116415;1206;24870;-71
2023/01/07 06:04:13;;;;;;;;;11.50;10.50;;;;;;;;116409;1202;25408;-65
2023/01/07 06:06:41;;;;;;;;;10.50;9.50;;;;;;;;116365;1197;25396;-65
2023/01/07 06:09:10;;;;;;;;;11.00;9.50;;;;;;;;116378;1202;25555;-65
2023/01/07 06:11:38;;;;;;;;;9.00;8.50;;;;;;;;116385;1202;25129;-67
2023/01/07 06:14:06;;;;;;;;;7.50;7.50;;;;;;;;116373;1199;25410;-68
2023/01/07 06:16:35;;;;;;;;;8.00;8.00;;;;;;;;116352;1203;25507;-68
2023/01/07 06:19:03;;;;;;;;;8.00;7.00;;;;;;;;116391;1211;24861;-64
2023/01/07 06:21:31;;;;;;;;;9.00;9.00;;;;;;;;116398;1207;25350;-64
2023/01/07 06:23:59;;;;;;;;;13.00;8.00;;;;;;;;116368;1205;25182;-65
2023/01/07 06:26:28;;;;;;;;;11.50;8.00;;;;;;;;116403;1202;25633;-65
2023/01/07 06:28:56;;;;;;;;;10.00;8.00;;;;;;;;116479;1211;24807;-65
2023/01/07 06:31:24;;;;;;;;;10.00;9.00;;;;;;;;116386;1195;25155;-66
2023/01/07 06:33:53;;;;;;;;;6.50;6.50;;;;;;;;116497;1202;24837;-70
2023/01/07 06:36:21;;;;;;;;;8.00;8.00;;;;;;;;116497;1202;25079;-62
2023/01/07 06:38:49;;;;;;;;;10.00;8.00;;;;;;;;116481;1209;25684;-67
2023/01/07 06:41:17;;;;;;;;;12.00;8.00;;;;;;;;116491;1203;24721;-66
2023/01/07 06:43:46;;;;;;;;;7.00;7.00;;;;;;;;116492;1203;25196;-66
2023/01/07 06:46:14;;;;;;;;;9.50;9.50;;;;;;;;116497;1200;25623;-66
2023/01/07 06:48:42;;;;;;;;;9.00;9.00;;;;;;;;116415;1206;25418;-65
2023/01/07 06:51:11;;;;;;;;;10.00;9.00;;;;;;;;116397;1202;25077;-64
2023/01/07 06:53:39;;;;;;;;;9.50;9.00;;;;;;;;116492;1206;25238;-63
2023/01/07 06:56:07;;;;;;;;;9.00;8.00;;;;;;;;116470;1200;26540;-63
2023/01/07 06:58:35;;;;;;;;;9.00;9.00;;;;;;;;116488;1202;25146;-70
2023/01/07 07:01:05;;;;;;;;;11.00;9.00;;;;;;;;116386;1211;25317;-67
2023/01/07 07:03:33;;;;;;;;;14.00;8.00;;;;;;;;116343;1206;25165;-66
2023/01/07 07:06:02;;;;;;;;;10.00;8.00;;;;;;;;116370;1202;25421;-63
2023/01/07 07:08:30;;;;;;;;;11.00;8.00;;;;;;;;116403;1205;24950;-64
2023/01/07 07:10:59;;;;;;;;;7.00;7.00;;;;;;;;116390;1203;25095;-63
2023/01/07 07:13:27;;;;;;;;;10.00;8.00;;;;;;;;116484;1202;25139;-70
2023/01/07 07:15:55;;;;;;;;;11.50;11.00;;;;;;;;116336;1202;25288;-68
2023/01/07 07:18:23;;;;;;;;;10.50;8.00;;;;;;;;116356;1206;24855;-64
2023/01/07 07:20:52;;;;;;;;;10.00;7.00;;;;;;;;116481;1203;25532;-68
2023/01/07 07:23:20;;;;;;;;;14.00;9.00;;;;;;;;116480;1203;24824;-67
2023/01/07 07:25:48;;;;;;;;;8.00;5.00;;;;;;;;116382;1200;25376;-63
2023/01/07 07:28:16;;;;;;;;;10.00;10.00;;;;;;;;116482;1202;25042;-65
2023/01/07 07:30:45;;;;;;;;;9.00;9.00;;;;;;;;116381;1200;25549;-70
2023/01/07 07:33:17;;;;;;;;;10.00;10.00;;;;;;;;116406;1203;25649;-67
2023/01/07 07:35:47;;;;;;;;;12.00;8.00;;;;;;;;116620;1207;25478;-69
2023/01/07 07:38:17;;;;;;;;;9.00;8.50;;;;;;;;116416;1208;25478;-68
2023/01/07 07:40:46;;;;;;;;;10.00;9.00;;;;;;;;116385;1203;25145;-75
2023/01/07 07:43:14;;;;;;;;;8.00;8.00;;;;;;;;116381;1206;25530;-64
2023/01/07 07:45:43;;;;;;;;;9.50;8.00;;;;;;;;116489;1209;25130;-80
2023/01/07 07:48:13;;;;;;;;;10.33;9.00;;;;;;;;116462;1198;25333;-82
2023/01/07 07:50:42;;;;;;;;;9.50;7.50;;;;;;;;116417;1200;24908;-76
2023/01/07 07:53:10;;;;;;;;;11.33;9.67;;;;;;;;116482;1206;25692;-82
2023/01/07 07:55:38;;;;;;;;;;;;;;;;;;116347;1203;24943;-70
2023/01/07 07:58:07;;;;;;;;;9.00;8.00;;;;;;;;116412;1205;25443;-78
2023/01/07 08:04:39;;;;;;;;;11.00;9.50;;;;;;;;113470;1213;23427;-77
2023/01/07 08:07:10;;;;;;;;;10.25;8.50;;;;;;;;114258;1206;25258;-68
2023/01/07 08:09:38;;;;;;;;;9.50;8.00;;;;;;;;114330;1209;25681;-66
2023/01/07 08:12:07;;;;;;;;;13.50;11.00;;;;;;;;114417;1205;25410;-71
2023/01/07 08:14:36;;;;;;;;;11.67;8.00;;;;;;;;114370;1213;25634;-73
2023/01/07 08:17:04;;;;;;;;;10.50;9.50;;;;;;;;114360;1206;24956;-65
2023/01/07 08:19:32;;;;;;;;;11.00;7.00;;;;;;;;114371;1206;25072;-83
2023/01/07 08:22:01;;;;;;;;;13.50;10.00;;;;;;;;114361;1205;24826;-77
2023/01/07 08:24:29;;;;;;;;;10.00;10.00;;;;;;;;114346;1206;25305;-67
2023/01/07 08:26:58;;;;;;;;;7.75;7.25;;;;;;;;114353;1212;25651;-66
2023/01/07 08:29:26;;;;;;;;;13.50;10.50;;;;;;;;114386;1214;25495;-65
2023/01/07 08:31:54;;;;;;;;;11.67;10.67;;;;;;;;114366;1214;25040;-66
2023/01/07 08:34:23;;;;;;;;;12.00;10.50;;;;;;;;114413;1206;25534;-65
2023/01/07 08:36:52;;;;;;;;;10.00;10.00;;;;;;;;114401;1207;25465;-64
2023/01/07 08:39:20;;;;;;;;;11.00;7.00;;;;;;;;114377;1205;24898;-74
2023/01/07 08:41:49;;;;;;;;;12.00;9.00;;;;;;;;114390;1206;25179;-66
2023/01/07 08:44:17;;;;;;;;;9.00;7.50;;;;;;;;114358;1206;25103;-66
2023/01/07 08:46:46;;;;;;;;;7.50;7.50;;;;;;;;114418;1209;25220;-79
2023/01/07 08:49:15;;;;;;;;;12.50;8.00;;;;;;;;114369;1210;24898;-67
2023/01/07 08:51:43;;;;;;;;;16.00;9.00;;;;;;;;114312;1206;25063;-64
2023/01/07 08:54:11;;;;;;;;;10.33;7.67;;;;;;;;114284;1206;25628;-63
2023/01/07 08:56:40;;;;;;;;;7.67;7.67;;;;;;;;114353;1210;25603;-63
2023/01/07 08:59:09;;;;;;;;;11.00;10.00;;;;;;;;114376;1197;25010;-67
2023/01/07 09:01:38;;;;;;;;;19.00;11.67;;;;;;;;114287;1207;25204;-64
2023/01/07 09:04:06;;;;;;;;;11.50;9.00;;;;;;;;114662;1201;24796;-65
2023/01/07 09:06:35;;;;;;;;;10.00;9.00;;;;;;;;114710;1211;25699;-64
2023/01/07 09:09:03;;;;;;;;;12.50;10.00;;;;;;;;114559;1203;25021;-71
2023/01/07 09:11:32;;;;;;;;;12.00;8.00;;;;;;;;114673;1200;24790;-62
2023/01/07 09:14:00;;;;;;;;;9.50;9.50;;;;;;;;114668;1203;25111;-70
2023/01/07 09:16:29;;;;;;;;;11.00;10.00;;;;;;;;114620;1206;24814;-66
2023/01/07 09:18:57;;;;;;;;;14.50;12.00;;;;;;;;114637;1205;25224;-65
2023/01/07 09:21:26;;;;;;;;;18.00;14.00;;;;;;;;114688;1203;24872;-65
2023/01/07 09:23:54;;;;;;;;;12.00;8.50;;;;;;;;114614;1211;25045;-64
2023/01/07 09:26:23;;;;;;;;;11.00;9.00;;;;;;;;114709;1206;25097;-66
2023/01/07 09:28:51;;;;;;;;;9.00;8.50;;;;;;;;114627;1209;25175;-76
2023/01/07 09:31:21;;;;;;;;;10.00;8.00;;;;;;;;114621;1203;25121;-73
2023/01/07 09:33:51;;;;;;;;;12.00;9.33;;;;;;;;114530;1209;25226;-73
2023/01/07 09:36:19;;;;;;;;;10.00;6.00;;;;;;;;114595;1206;24889;-69
2023/01/07 09:38:48;;;;;;;;;8.00;8.00;;;;;;;;114614;1206;25662;-81
2023/01/07 09:41:55;;;;;;;;;8.67;8.00;;;;;;;;114722;1202;25536;-70
2023/01/07 09:44:43;;;;;;;;;11.50;9.00;;;;;;;;114578;1209;25682;-68
2023/01/07 09:47:15;;;;;;;;;8.00;7.50;;;;;;;;114590;1203;24819;-66
2023/01/07 09:49:47;;;;;;;;;13.00;10.00;;;;;;;;114616;1211;24889;-65
2023/01/07 09:52:36;;;;;;;;;10.00;10.00;;;;;;;;114596;1203;25297;-67
2023/01/07 09:55:18;;;;;;;;;12.00;9.67;;;;;;;;114640;1206;26110;-69
2023/01/07 09:57:46;;;;;;;;;11.00;8.67;;;;;;;;114647;1202;25458;-71
2023/01/07 10:00:18;;;;;;;;;9.00;8.00;;;;;;;;114484;1206;25694;-80
2023/01/07 10:02:58;;;;;;;;;18.00;17.00;;;;;;;;114613;1206;25200;-72
2023/01/07 10:05:40;;;;;;;;;15.00;10.00;;;;;;;;114605;1203;25555;-64
2023/01/07 10:08:28;;;;;;;;;18.00;14.00;;;;;;;;114632;1203;25511;-61
2023/01/07 10:11:05;;;;;;;;;15.50;12.00;;;;;;;;114622;1207;25169;-62
2023/01/07 10:13:45;;;;;;;;;13.00;12.00;;;;;;;;114604;1207;24969;-63
2023/01/07 10:16:40;;;;;;;;;14.00;11.00;;;;;;;;114715;1211;25124;-62
2023/01/07 10:19:21;;;;;;;;;9.50;8.00;;;;;;;;114720;1206;25212;-62
2023/01/07 10:22:37;;;;;;;;;12.00;10.00;;;;;;;;114683;1207;24720;-62
2023/01/07 10:25:14;;;;;;;;;15.00;10.00;;;;;;;;114634;1211;25298;-64
2023/01/07 10:27:45;;;;;;;;;10.25;8.25;;;;;;;;114625;1203;24738;-63
2023/01/07 10:30:28;;;;;;;;;8.50;8.50;;;;;;;;114529;1199;25635;-65
2023/01/07 10:33:15;;;;;;;;;11.00;10.00;;;;;;;;114634;1206;26248;-65
2023/01/07 10:35:47;;;;;;;;;9.50;9.00;;;;;;;;114671;1202;24970;-65
2023/01/07 10:38:18;;;;;;;;;15.00;11.00;;;;;;;;114614;1207;25613;-65
2023/01/07 10:40:56;;;;;;;;;12.50;9.50;;;;;;;;114639;1199;25043;-64
2023/01/07 10:43:37;;;;;;;;;10.00;8.00;;;;;;;;114639;1208;25205;-65
2023/01/07 10:46:23;;;;;;;;;11.00;5.50;;;;;;;;114679;1199;25117;-65
2023/01/07 10:49:04;;;;;;;;;12.00;9.00;;;;;;;;114671;1204;25535;-65
2023/01/07 10:51:43;;;;;;;;;10.50;8.00;;;;;;;;114619;1210;25044;-66
2023/01/07 10:54:30;;;;;;;;;9.00;7.33;;;;;;;;114597;1206;25496;-65
2023/01/07 10:57:11;;;;;;;;;6.00;6.00;;;;;;;;114609;1211;25333;-66
2023/01/07 10:59:44;;;;;;;;;12.00;7.50;;;;;;;;114567;1203;24893;-66
2023/01/07 11:02:16;;;;;;;;;13.00;9.67;;;;;;;;114748;1200;25540;-66
2023/01/07 11:04:45;;;;;;;;;8.67;7.67;;;;;;;;114669;1203;25124;-67
2023/01/07 11:07:27;;;;;;;;;9.33;7.67;;;;;;;;114767;1211;25197;-67
2023/01/07 11:09:59;;;;;;;;;15.00;9.00;;;;;;;;114715;1209;25077;-66
2023/01/07 11:12:46;;;;;;;;;7.25;6.25;;;;;;;;114715;1206;25311;-67
2023/01/07 11:15:19;;;;;;;;;11.00;10.50;;;;;;;;114688;1200;24831;-68
2023/01/07 11:17:50;;;;;;;;;12.00;9.00;;;;;;;;114709;1196;25518;-66
2023/01/07 11:20:44;;;;;;;;;10.33;10.00;;;;;;;;114704;1203;25052;-67
2023/01/07 11:23:25;;;;;;;;;12.00;9.33;;;;;;;;114729;1206;25373;-67
2023/01/07 11:25:54;;;;;;;;;10.00;8.00;;;;;;;;114724;1200;25246;-67
2023/01/07 11:28:26;;;;;;;;;10.00;8.50;;;;;;;;114732;1206;25638;-66
2023/01/07 11:30:59;;;;;;;;;12.00;8.67;;;;;;;;114688;1209;25129;-67
2023/01/07 11:33:54;;;;;;;;;9.00;9.00;;;;;;;;114664;1202;25524;-67
2023/01/07 11:36:39;;;;;;;;;10.50;8.00;;;;;;;;114718;1201;25124;-67
2023/01/07 11:39:11;;;;;;;;;10.00;9.00;;;;;;;;114678;1205;25710;-67
2023/01/07 11:42:37;;;;;;;;;11.00;8.00;;;;;;;;114664;1203;25155;-67
2023/01/07 11:44:49;;;;;;;;;13.00;12.00;;;;;;;;114677;1209;25202;-68
2023/01/07 11:47:18;;;;;;;;;10.50;9.00;;;;;;;;114733;1211;25057;-67
2023/01/07 11:49:47;;;;;;;;;9.00;8.00;;;;;;;;114735;1205;25517;-66
2023/01/07 11:52:19;;;;;;;;;12.00;7.00;;;;;;;;114712;1209;24827;-67
2023/01/07 11:54:51;;;;;;;;;9.00;8.00;;;;;;;;114782;1200;25158;-66
2023/01/07 11:57:24;;;;;;;;;9.00;8.00;;;;;;;;114812;1204;25745;-67
2023/01/07 12:00:27;;;;;;;;;8.67;7.00;;;;;;;;114800;1204;24704;-67
2023/01/07 12:03:22;;;;;;;;;15.00;9.00;;;;;;;;114651;1209;24774;-66
2023/01/07 12:05:55;;;;;;;;;9.50;8.50;;;;;;;;114809;1211;26085;-67
2023/01/07 12:08:26;;;;;;;;;9.50;8.00;;;;;;;;114726;1205;25533;-66
2023/01/07 12:10:55;;;;;;;;;9.00;9.00;;;;;;;;114823;1202;25625;-72
2023/01/07 12:13:26;;;;;;;;;7.00;7.00;;;;;;;;114726;1207;24842;-72
2023/01/07 12:16:01;;;;;;;;;11.00;9.00;;;;;;;;114784;1205;25043;-72
2023/01/07 12:18:55;;;;;;;;;12.50;9.00;;;;;;;;114716;1211;25082;-73
2023/01/07 12:22:14;;;;;;;;;9.00;9.00;;;;;;;;114828;1200;25722;-74
2023/01/07 12:25:04;;;;;;;;;9.00;7.00;;;;;;;;114518;1200;25062;-74
2023/01/07 12:27:36;;;;;;;;;8.33;6.00;;;;;;;;114817;1206;25270;-74
2023/01/07 12:30:33;;;;;;;;;5.25;5.00;;;;;;;;114780;1200;25200;-73
2023/01/07 12:33:04;;;;;;;;;7.00;7.00;;;;;;;;114729;1206;24926;-72
2023/01/07 12:35:41;;;;;;;;;8.00;8.00;;;;;;;;114797;1200;25496;-73
2023/01/07 12:38:17;;;;;;;;;9.50;6.50;;;;;;;;114732;1205;25027;-72
2023/01/07 12:40:56;;;;;;;;;10.00;7.00;;;;;;;;114656;1208;25341;-72
2023/01/07 12:43:29;;;;;;;;;7.75;7.00;;;;;;;;114653;1202;25233;-72
2023/01/07 12:46:01;;;;;;;;;7.00;5.50;;;;;;;;114700;1204;25022;-73
2023/01/07 12:48:35;;;;;;;;;7.00;6.00;;;;;;;;114765;1197;24975;-73
2023/01/07 12:51:12;;;;;;;;;5.00;5.00;;;;;;;;114713;1200;25015;-73
2023/01/07 12:53:59;;;;;;;;;7.00;7.00;;;;;;;;114740;1203;24832;-73
2023/01/07 12:56:38;;;;;;;;;8.00;7.00;;;;;;;;114756;1205;24754;-73
2023/01/07 12:59:19;;;;;;;;;9.00;9.00;;;;;;;;114745;1205;25122;-72
2023/01/07 13:02:38;;;;;;;;;6.50;6.00;;;;;;;;114769;1211;25052;-72
2023/01/07 13:05:19;;;;;;;;;9.50;7.00;;;;;;;;114803;1197;24682;-73
2023/01/07 13:08:24;;;;;;;;;7.00;7.00;;;;;;;;114801;1202;25284;-72
2023/01/07 13:12:41;;;;;;;;;7.00;7.00;;;;;;;;114803;1201;25419;-74
2023/01/07 13:14:26;;;;;;;;;11.50;7.00;;;;;;;;114781;1211;25637;-74
2023/01/07 13:17:10;;;;;;;;;9.00;6.00;;;;;;;;114776;1211;25204;-75
2023/01/07 13:19:39;;;;;;;;;7.00;5.50;;;;;;;;114733;1206;25432;-71
2023/01/07 13:22:35;;;;;;;;;9.00;9.00;;;;;;;;114814;1200;25515;-72
2023/01/07 13:25:11;;;;;;;;;8.00;7.00;;;;;;;;114710;1209;24904;-72
2023/01/07 13:28:04;;;;;;;;;11.00;8.00;;;;;;;;114822;1205;26212;-72
2023/01/07 13:31:03;;;;;;;;;7.50;7.50;;;;;;;;114783;1206;25593;-72
2023/01/07 13:33:50;;;;;;;;;10.00;7.50;;;;;;;;114811;1208;24727;-73
2023/01/07 13:36:28;;;;;;;;;9.00;7.00;;;;;;;;114814;1208;25284;-72
2023/01/07 13:39:32;;;;;;;;;9.00;8.00;;;;;;;;114711;1202;25672;-71
2023/01/07 13:42:18;;;;;;;;;11.00;7.00;;;;;;;;114766;1203;25693;-71
2023/01/07 13:44:57;;;;;;;;;7.50;6.50;;;;;;;;114720;1205;25231;-74
2023/01/07 13:47:32;;;;;;;;;8.50;7.00;;;;;;;;114727;1203;25114;-73
2023/01/07 13:50:01;;;;;;;;;7.67;7.67;;;;;;;;114718;1209;25057;-72
2023/01/07 13:52:31;;;;;;;;;5.50;4.50;;;;;;;;114706;1203;25222;-72
2023/01/07 13:55:04;;;;;;;;;9.00;8.00;;;;;;;;114695;1209;24828;-72
2023/01/07 13:57:35;;;;;;;;;14.00;10.00;;;;;;;;114680;1203;25004;-65
2023/01/07 14:00:25;;;;;;;;;12.00;9.50;;;;;;;;114821;1199;24760;-67
2023/01/07 14:02:56;;;;;;;;;10.00;8.50;;;;;;;;114777;1204;25668;-72
2023/01/07 14:05:27;;;;;;;;;19.00;19.00;;;;;;;;114766;1209;24979;-70
2023/01/07 14:08:00;;;;;;;;;11.50;10.00;;;;;;;;114657;1206;25616;-65
2023/01/07 14:10:31;;;;;;;;;15.33;11.33;;;;;;;;114693;1198;25207;-66
2023/01/07 14:13:22;;;;;;;;;17.00;10.00;;;;;;;;114793;1197;24940;-65
2023/01/07 14:16:02;;;;;;;;;8.67;7.33;;;;;;;;114776;1204;24755;-64
2023/01/07 14:19:08;;;;;;;;;13.00;11.00;;;;;;;;114702;1203;25395;-64
2023/01/07 14:22:05;;;;;;;;;11.00;10.00;;;;;;;;114718;1201;25789;-65
2023/01/07 14:24:55;;;;;;;;;6.50;3.50;;;;;;;;114705;1206;24778;-81
2023/01/07 14:27:41;;;;;;;;;10.50;9.00;;;;;;;;114717;1203;25095;-73
2023/01/07 14:30:25;;;;;;;;;9.00;9.00;;;;;;;;114665;1209;25340;-63
2023/01/07 14:33:05;;;;;;;;;10.00;8.00;;;;;;;;114829;1200;25442;-63
2023/01/07 14:35:37;;;;;;;;;10.00;9.00;;;;;;;;114625;1206;25364;-61
2023/01/07 14:38:30;;;;;;;;;6.00;6.00;;;;;;;;114597;1203;24707;-62
2023/01/07 14:41:02;;;;;;;;;14.67;10.33;;;;;;;;114688;1203;24765;-62
2023/01/07 14:43:39;;;;;;;;;12.00;9.00;;;;;;;;114705;1205;25457;-61
2023/01/07 14:46:21;;;;;;;;;10.00;10.00;;;;;;;;114819;1206;25115;-62
2023/01/07 14:49:01;;;;;;;;;11.00;7.67;;;;;;;;114875;1197;25202;-62
2023/01/07 14:51:52;;;;;;;;;18.00;10.50;;;;;;;;114797;1193;25091;-62
2023/01/07 14:54:37;;;;;;;;;15.00;10.00;;;;;;;;114789;1208;25592;-62
2023/01/07 14:57:06;;;;;;;;;8.50;8.00;;;;;;;;114615;1201;25144;-61
2023/01/07 15:00:03;;;;;;;;;14.00;8.67;;;;;;;;114721;1209;25307;-61
2023/01/07 15:02:47;;;;;;;;;10.00;10.00;;;;;;;;114723;1201;25700;-62
2023/01/07 15:05:16;;;;;;;;;9.50;9.00;;;;;;;;114834;1203;25481;-60
2023/01/07 15:16:33;;;;;;;;;12.00;10.50;;;;;;;;114803;1196;25543;-59